PWSweather.com
Personal Weather Stations
Station Observations
J24K28P63
Vysocina, PocatkyCZ 39464

VysocinaPocatkyCZ 39464

Lat: 49.2594238, Lon: 15.2331769

Elevation: 2011

Station Type: Vantage Pro2+

http://meteo-jirkalina.com

High Low Average
Temperature 66.8°F19.3°C 49.6°F9.8°C 56.9°F13.8°C
Dew Point 58.7°F14.8°C 48.8°F9.3°C 54.6°F12.6°C
Winds 12.0 mph 19.3 kmh Calm Calm 5.0 mph W8.0 kmh W
Wind Gusts 18.0 mph29.0 kmh -- 7.0 mph11.3 kmh
Humidity 100% 73% 93%
Pressure 29.96 in1014.6 mb 29.81 in1009.5 mb -
Precipitation 0.92 in23.4 mm - -
Hour Temp Dew Point Humidity Winds Wind Gusts Pressure Precip Precip Rate Daily Precip Total
12:00 AM 50.4°F10.2°C 49.0°F9.4°C 95% Calm Calm -- 29.82 in1009.8 mb - 0.00 in0.0 mm 0.00 in0.0 mm
12:30 AM 50.7°F10.4°C 49.6°F9.8°C 96% Calm Calm -- 29.82 in1009.8 mb - 0.00 in0.0 mm 0.00 in0.0 mm
01:00 AM 50.7°F10.4°C 49.6°F9.8°C 96% 1.4 mph SW2.3 kmh SW 5.0 mph8.0 kmh 29.82 in1009.8 mb - 0.00 in0.0 mm 0.00 in0.0 mm
01:30 AM 50.7°F10.4°C 49.9°F9.9°C 97% Calm Calm -- 29.82 in1009.8 mb - 0.00 in0.0 mm 0.00 in0.0 mm
02:00 AM 50.8°F10.4°C 50.0°F10.0°C 97% 0.2 mph W0.3 kmh W 2.0 mph3.2 kmh 29.81 in1009.5 mb - 0.00 in0.0 mm 0.00 in0.0 mm
02:30 AM 50.8°F10.4°C 49.7°F9.8°C 96% 0.6 mph W1.0 kmh W 2.0 mph3.2 kmh 29.81 in1009.5 mb - 0.00 in0.0 mm 0.00 in0.0 mm
03:00 AM 50.5°F10.3°C 49.1°F9.5°C 95% Calm Calm -- 29.81 in1009.5 mb - 0.00 in0.0 mm 0.00 in0.0 mm
03:30 AM 50.5°F10.3°C 49.1°F9.5°C 95% 0.6 mph WSW1.0 kmh WSW -- 29.81 in1009.5 mb - 0.00 in0.0 mm 0.00 in0.0 mm
04:00 AM 50.2°F10.1°C 49.1°F9.5°C 96% 0.2 mph WSW0.3 kmh WSW 5.0 mph8.0 kmh 29.81 in1009.5 mb - 0.00 in0.0 mm 0.00 in0.0 mm
04:30 AM 49.9°F9.9°C 48.8°F9.3°C 96% 3.1 mph WSW5.0 kmh WSW 4.0 mph6.4 kmh 29.81 in1009.5 mb - 0.00 in0.0 mm 0.00 in0.0 mm
05:00 AM 49.8°F9.9°C 49.0°F9.4°C 97% 0.9 mph SW1.4 kmh SW 4.0 mph6.4 kmh 29.81 in1009.5 mb - 0.00 in0.0 mm 0.00 in0.0 mm
05:10 AM 54.5°F12.5°C 54.2°F12.3°C 99% 5.0 mph SW8.0 kmh SW 9.0 mph14.5 kmh 29.84 in1010.5 mb - 0.00 in0.0 mm 0.13 in3.3 mm
05:20 AM 54.6°F12.6°C 54.3°F12.4°C 99% 5.0 mph WSW8.0 kmh WSW 10.0 mph16.1 kmh 29.84 in1010.5 mb - 0.00 in0.0 mm 0.13 in3.3 mm
05:30 AM 54.9°F12.7°C 54.6°F12.6°C 99% 6.0 mph WSW9.7 kmh WSW 8.0 mph12.9 kmh 29.85 in1010.8 mb - 0.00 in0.0 mm 0.13 in3.3 mm
05:40 AM 55.1°F12.8°C 54.8°F12.7°C 99% 5.0 mph WSW8.0 kmh WSW 8.0 mph12.9 kmh 29.85 in1010.8 mb - 0.00 in0.0 mm 0.13 in3.3 mm
05:50 AM 55.2°F12.9°C 54.9°F12.7°C 99% 3.0 mph WSW4.8 kmh WSW 9.0 mph14.5 kmh 29.85 in1010.8 mb - 0.00 in0.0 mm 0.13 in3.3 mm
06:00 AM 55.3°F12.9°C 55.0°F12.8°C 99% 5.0 mph WSW8.0 kmh WSW 7.0 mph11.3 kmh 29.85 in1010.8 mb - 0.00 in0.0 mm 0.13 in3.3 mm
06:10 AM 55.4°F13.0°C 55.1°F12.8°C 99% 6.0 mph WSW9.7 kmh WSW 12.0 mph19.3 kmh 29.85 in1010.8 mb - 0.01 in0.3 mm 0.14 in3.6 mm
06:20 AM 55.6°F13.1°C 55.3°F12.9°C 99% 6.0 mph WSW9.7 kmh WSW 10.0 mph16.1 kmh 29.85 in1010.8 mb - 0.01 in0.3 mm 0.14 in3.6 mm
06:30 AM 55.7°F13.2°C 55.5°F13.1°C 99% 5.0 mph WSW8.0 kmh WSW 9.0 mph14.5 kmh 29.85 in1010.8 mb - 0.00 in0.0 mm 0.14 in3.6 mm
06:40 AM 56.0°F13.3°C 55.8°F13.2°C 99% 3.0 mph WSW4.8 kmh WSW 8.0 mph12.9 kmh 29.85 in1010.8 mb - 0.00 in0.0 mm 0.14 in3.6 mm
06:50 AM 56.1°F13.4°C 55.8°F13.2°C 99% 5.0 mph WSW8.0 kmh WSW 8.0 mph12.9 kmh 29.85 in1010.8 mb - 0.01 in0.3 mm 0.15 in3.8 mm
07:00 AM 56.3°F13.5°C 56.0°F13.3°C 99% 5.0 mph WSW8.0 kmh WSW 5.0 mph8.0 kmh 29.85 in1010.8 mb - 0.00 in0.0 mm 0.15 in3.8 mm
07:10 AM 56.6°F13.7°C 56.3°F13.5°C 99% 5.0 mph WSW8.0 kmh WSW 9.0 mph14.5 kmh 29.85 in1010.8 mb - 0.00 in0.0 mm 0.15 in3.8 mm
07:20 AM 57.0°F13.9°C 56.7°F13.7°C 99% 5.0 mph WSW8.0 kmh WSW 10.0 mph16.1 kmh 29.85 in1010.8 mb - 0.00 in0.0 mm 0.15 in3.8 mm
07:30 AM 57.0°F13.9°C 56.7°F13.7°C 99% 6.0 mph WSW9.7 kmh WSW 9.0 mph14.5 kmh 29.85 in1010.8 mb - 0.00 in0.0 mm 0.15 in3.8 mm
07:40 AM 57.2°F14.0°C 56.9°F13.8°C 99% 6.0 mph WSW9.7 kmh WSW 8.0 mph12.9 kmh 29.85 in1010.8 mb - 0.00 in0.0 mm 0.15 in3.8 mm
07:50 AM 57.7°F14.3°C 57.4°F14.1°C 99% 6.0 mph WSW9.7 kmh WSW 7.0 mph11.3 kmh 29.86 in1011.2 mb - 0.00 in0.0 mm 0.15 in3.8 mm
08:00 AM 58.2°F14.6°C 57.9°F14.4°C 99% 3.0 mph WSW4.8 kmh WSW 8.0 mph12.9 kmh 29.85 in1010.8 mb - 0.00 in0.0 mm 0.15 in3.8 mm
08:10 AM 58.5°F14.7°C 58.3°F14.6°C 99% 6.0 mph W9.7 kmh W 9.0 mph14.5 kmh 29.86 in1011.2 mb - 0.00 in0.0 mm 0.15 in3.8 mm
08:20 AM 58.4°F14.7°C 58.1°F14.5°C 99% 7.0 mph WSW11.3 kmh WSW 10.0 mph16.1 kmh 29.86 in1011.2 mb - 0.00 in0.0 mm 0.15 in3.8 mm
08:30 AM 59.0°F15.0°C 58.7°F14.8°C 99% 6.0 mph W9.7 kmh W 9.0 mph14.5 kmh 29.86 in1011.2 mb - 0.00 in0.0 mm 0.15 in3.8 mm
08:40 AM 58.6°F14.8°C 58.0°F14.4°C 98% 9.0 mph W14.5 kmh W 12.0 mph19.3 kmh 29.86 in1011.2 mb - 0.00 in0.0 mm 0.15 in3.8 mm
08:50 AM 58.6°F14.8°C 58.0°F14.4°C 98% 6.0 mph W9.7 kmh W 10.0 mph16.1 kmh 29.87 in1011.5 mb - 0.00 in0.0 mm 0.15 in3.8 mm
09:00 AM 58.4°F14.7°C 57.8°F14.3°C 98% 7.0 mph W11.3 kmh W 8.0 mph12.9 kmh 29.87 in1011.5 mb - 0.00 in0.0 mm 0.15 in3.8 mm
09:10 AM 58.6°F14.8°C 58.0°F14.4°C 98% 6.0 mph WNW9.7 kmh WNW 9.0 mph14.5 kmh 29.87 in1011.5 mb - 0.00 in0.0 mm 0.15 in3.8 mm
09:20 AM 58.3°F14.6°C 57.5°F14.2°C 97% 5.0 mph W8.0 kmh W 7.0 mph11.3 kmh 29.87 in1011.5 mb - 0.00 in0.0 mm 0.15 in3.8 mm
09:30 AM 50.2°F10.1°C 50.2°F10.1°C 100% 1.0 mph SW1.6 kmh SW 4.0 mph6.4 kmh 29.84 in1010.5 mb - 0.08 in2.0 mm 0.35 in8.9 mm
09:50 AM 58.3°F14.6°C 57.5°F14.2°C 97% 9.0 mph W14.5 kmh W 12.0 mph19.3 kmh 29.88 in1011.9 mb - 0.00 in0.0 mm 0.15 in3.8 mm
10:00 AM 58.3°F14.6°C 57.5°F14.2°C 97% 6.0 mph W9.7 kmh W 10.0 mph16.1 kmh 29.88 in1011.9 mb - 0.00 in0.0 mm 0.15 in3.8 mm
10:10 AM 58.1°F14.5°C 57.3°F14.1°C 97% 7.0 mph W11.3 kmh W 9.0 mph14.5 kmh 29.88 in1011.9 mb - 0.00 in0.0 mm 0.15 in3.8 mm
10:20 AM 58.2°F14.6°C 57.4°F14.1°C 97% 8.0 mph W12.9 kmh W 10.0 mph16.1 kmh 29.89 in1012.2 mb - 0.00 in0.0 mm 0.15 in3.8 mm
10:30 AM 58.4°F14.7°C 57.3°F14.1°C 96% 8.0 mph WNW12.9 kmh WNW 12.0 mph19.3 kmh 29.89 in1012.2 mb - 0.00 in0.0 mm 0.15 in3.8 mm
10:40 AM 58.4°F14.7°C 57.3°F14.1°C 96% 8.0 mph W12.9 kmh W 10.0 mph16.1 kmh 29.89 in1012.2 mb - 0.00 in0.0 mm 0.15 in3.8 mm
10:50 AM 58.4°F14.7°C 57.3°F14.1°C 96% 7.0 mph WSW11.3 kmh WSW 9.0 mph14.5 kmh 29.89 in1012.2 mb - 0.00 in0.0 mm 0.15 in3.8 mm
11:00 AM 58.4°F14.7°C 57.0°F13.9°C 95% 9.0 mph WSW14.5 kmh WSW 13.0 mph20.9 kmh 29.90 in1012.5 mb - 0.00 in0.0 mm 0.15 in3.8 mm
11:10 AM 58.5°F14.7°C 57.1°F13.9°C 95% 7.0 mph W11.3 kmh W 12.0 mph19.3 kmh 29.90 in1012.5 mb - 0.00 in0.0 mm 0.15 in3.8 mm
11:20 AM 59.1°F15.1°C 57.7°F14.3°C 95% 8.0 mph W12.9 kmh W 10.0 mph16.1 kmh 29.89 in1012.2 mb - 0.00 in0.0 mm 0.15 in3.8 mm
11:30 AM 60.2°F15.7°C 58.5°F14.7°C 94% 10.0 mph W16.1 kmh W 14.0 mph22.5 kmh 29.90 in1012.5 mb - 0.00 in0.0 mm 0.15 in3.8 mm
11:40 AM 60.7°F15.9°C 58.1°F14.5°C 91% 9.0 mph NW14.5 kmh NW 12.0 mph19.3 kmh 29.90 in1012.5 mb - 0.00 in0.0 mm 0.15 in3.8 mm
11:50 AM 60.6°F15.9°C 57.6°F14.2°C 90% 10.0 mph W16.1 kmh W 12.0 mph19.3 kmh 29.90 in1012.5 mb - 0.00 in0.0 mm 0.15 in3.8 mm
12:00 PM 60.3°F15.7°C 57.1°F13.9°C 89% 9.0 mph W14.5 kmh W 12.0 mph19.3 kmh 29.91 in1012.9 mb - 0.00 in0.0 mm 0.15 in3.8 mm
12:10 PM 60.3°F15.7°C 57.0°F13.9°C 89% 10.0 mph W16.1 kmh W 15.0 mph24.1 kmh 29.91 in1012.9 mb - 0.00 in0.0 mm 0.15 in3.8 mm
12:20 PM 60.3°F15.7°C 56.7°F13.7°C 88% 12.0 mph NW19.3 kmh NW 15.0 mph24.1 kmh 29.91 in1012.9 mb - 0.00 in0.0 mm 0.15 in3.8 mm
12:30 PM 60.3°F15.7°C 56.7°F13.7°C 88% 8.0 mph W12.9 kmh W 12.0 mph19.3 kmh 29.91 in1012.9 mb - 0.00 in0.0 mm 0.15 in3.8 mm
12:40 PM 60.2°F15.7°C 56.6°F13.7°C 88% 12.0 mph W19.3 kmh W 17.0 mph27.4 kmh 29.91 in1012.9 mb - 0.00 in0.0 mm 0.15 in3.8 mm
12:50 PM 60.0°F15.6°C 56.4°F13.6°C 88% 9.0 mph WSW14.5 kmh WSW 13.0 mph20.9 kmh 29.91 in1012.9 mb - 0.00 in0.0 mm 0.15 in3.8 mm
01:00 PM 52.0°F11.1°C 52.0°F11.1°C 100% 1.1 mph WSW1.8 kmh WSW 2.0 mph3.2 kmh 29.88 in1011.9 mb - 0.06 in1.5 mm 0.87 in22.1 mm
01:10 PM 59.7°F15.4°C 55.8°F13.2°C 87% 8.0 mph WSW12.9 kmh WSW 10.0 mph16.1 kmh 29.91 in1012.9 mb - 0.00 in0.0 mm 0.15 in3.8 mm
01:20 PM 59.8°F15.4°C 55.9°F13.3°C 87% 8.0 mph W12.9 kmh W 12.0 mph19.3 kmh 29.91 in1012.9 mb - 0.00 in0.0 mm 0.15 in3.8 mm
01:30 PM 60.1°F15.6°C 56.2°F13.4°C 87% 10.0 mph W16.1 kmh W 14.0 mph22.5 kmh 29.91 in1012.9 mb - 0.00 in0.0 mm 0.15 in3.8 mm
01:40 PM 60.6°F15.9°C 56.3°F13.5°C 86% 9.0 mph WSW14.5 kmh WSW 14.0 mph22.5 kmh 29.91 in1012.9 mb - 0.00 in0.0 mm 0.15 in3.8 mm
01:50 PM 61.5°F16.4°C 57.0°F13.9°C 85% 9.0 mph W14.5 kmh W 12.0 mph19.3 kmh 29.91 in1012.9 mb - 0.00 in0.0 mm 0.15 in3.8 mm
02:00 PM 62.1°F16.7°C 56.9°F13.8°C 83% 7.0 mph WNW11.3 kmh WNW 12.0 mph19.3 kmh 29.91 in1012.9 mb - 0.00 in0.0 mm 0.15 in3.8 mm
02:10 PM 63.7°F17.6°C 57.8°F14.3°C 81% 9.0 mph W14.5 kmh W 14.0 mph22.5 kmh 29.91 in1012.9 mb - 0.00 in0.0 mm 0.15 in3.8 mm
02:20 PM 64.9°F18.3°C 58.2°F14.6°C 79% 8.0 mph W12.9 kmh W 12.0 mph19.3 kmh 29.91 in1012.9 mb - 0.00 in0.0 mm 0.15 in3.8 mm
02:30 PM 53.9°F12.2°C 53.9°F12.2°C 100% 0.6 mph W1.0 kmh W 2.0 mph3.2 kmh 29.88 in1011.9 mb - 0.01 in0.3 mm 0.91 in23.1 mm
02:40 PM 66.8°F19.3°C 58.6°F14.8°C 75% 8.0 mph NW12.9 kmh NW 12.0 mph19.3 kmh 29.91 in1012.9 mb - 0.00 in0.0 mm 0.15 in3.8 mm
02:50 PM 66.8°F19.3°C 57.8°F14.3°C 73% 9.0 mph WNW14.5 kmh WNW 13.0 mph20.9 kmh 29.91 in1012.9 mb - 0.00 in0.0 mm 0.15 in3.8 mm
03:00 PM 65.6°F18.7°C 57.5°F14.2°C 75% 9.0 mph W14.5 kmh W 12.0 mph19.3 kmh 29.91 in1012.9 mb - 0.00 in0.0 mm 0.15 in3.8 mm
03:10 PM 66.6°F19.2°C 58.0°F14.4°C 74% 12.0 mph W19.3 kmh W 18.0 mph29.0 kmh 29.91 in1012.9 mb - 0.00 in0.0 mm 0.15 in3.8 mm
03:20 PM 65.3°F18.5°C 57.5°F14.2°C 76% 9.0 mph WSW14.5 kmh WSW 15.0 mph24.1 kmh 29.91 in1012.9 mb - 0.00 in0.0 mm 0.15 in3.8 mm
03:30 PM 64.1°F17.8°C 56.8°F13.8°C 77% 10.0 mph WSW16.1 kmh WSW 14.0 mph22.5 kmh 29.92 in1013.2 mb - 0.00 in0.0 mm 0.15 in3.8 mm
03:40 PM 63.2°F17.3°C 56.5°F13.6°C 79% 7.0 mph WNW11.3 kmh WNW 12.0 mph19.3 kmh 29.92 in1013.2 mb - 0.00 in0.0 mm 0.15 in3.8 mm
03:50 PM 62.9°F17.2°C 56.6°F13.7°C 80% 7.0 mph WNW11.3 kmh WNW 10.0 mph16.1 kmh 29.93 in1013.5 mb - 0.00 in0.0 mm 0.15 in3.8 mm
04:00 PM 62.5°F16.9°C 56.5°F13.6°C 81% 6.0 mph W9.7 kmh W 10.0 mph16.1 kmh 29.93 in1013.5 mb - 0.00 in0.0 mm 0.15 in3.8 mm
04:10 PM 62.2°F16.8°C 56.6°F13.7°C 82% 7.0 mph W11.3 kmh W 10.0 mph16.1 kmh 29.93 in1013.5 mb - 0.00 in0.0 mm 0.15 in3.8 mm
04:20 PM 62.8°F17.1°C 56.2°F13.4°C 79% 9.0 mph W14.5 kmh W 16.0 mph25.7 kmh 29.93 in1013.5 mb - 0.00 in0.0 mm 0.15 in3.8 mm
04:30 PM 62.0°F16.7°C 55.7°F13.2°C 80% 6.0 mph WSW9.7 kmh WSW 9.0 mph14.5 kmh 29.93 in1013.5 mb - 0.00 in0.0 mm 0.15 in3.8 mm
04:40 PM 61.3°F16.3°C 55.8°F13.2°C 82% 6.0 mph W9.7 kmh W 8.0 mph12.9 kmh 29.93 in1013.5 mb - 0.00 in0.0 mm 0.15 in3.8 mm
04:50 PM 60.9°F16.1°C 55.4°F13.0°C 82% 7.0 mph WNW11.3 kmh WNW 10.0 mph16.1 kmh 29.93 in1013.5 mb - 0.01 in0.3 mm 0.16 in4.1 mm
05:00 PM 60.7°F15.9°C 55.1°F12.8°C 82% 7.0 mph W11.3 kmh W 9.0 mph14.5 kmh 29.93 in1013.5 mb - 0.00 in0.0 mm 0.16 in4.1 mm
05:10 PM 60.6°F15.9°C 55.4°F13.0°C 83% 5.0 mph WNW8.0 kmh WNW 7.0 mph11.3 kmh 29.94 in1013.9 mb - 0.00 in0.0 mm 0.16 in4.1 mm
05:20 PM 60.7°F15.9°C 55.5°F13.1°C 83% 5.0 mph W8.0 kmh W 8.0 mph12.9 kmh 29.93 in1013.5 mb - 0.00 in0.0 mm 0.16 in4.1 mm
05:30 PM 60.7°F15.9°C 55.5°F13.1°C 83% 5.0 mph W8.0 kmh W 8.0 mph12.9 kmh 29.94 in1013.9 mb - 0.00 in0.0 mm 0.16 in4.1 mm
05:40 PM 60.4°F15.8°C 54.9°F12.7°C 82% 6.0 mph WSW9.7 kmh WSW 7.0 mph11.3 kmh 29.94 in1013.9 mb - 0.00 in0.0 mm 0.16 in4.1 mm
05:50 PM 60.3°F15.7°C 54.8°F12.7°C 82% 5.0 mph WSW8.0 kmh WSW 9.0 mph14.5 kmh 29.95 in1014.2 mb - 0.00 in0.0 mm 0.16 in4.1 mm
06:00 PM 60.1°F15.6°C 54.6°F12.6°C 82% 5.0 mph W8.0 kmh W 7.0 mph11.3 kmh 29.95 in1014.2 mb - 0.00 in0.0 mm 0.16 in4.1 mm
06:10 PM 60.0°F15.6°C 54.5°F12.5°C 82% 6.0 mph W9.7 kmh W 9.0 mph14.5 kmh 29.95 in1014.2 mb - 0.00 in0.0 mm 0.16 in4.1 mm
06:20 PM 59.9°F15.5°C 54.4°F12.4°C 82% 8.0 mph WNW12.9 kmh WNW 12.0 mph19.3 kmh 29.95 in1014.2 mb - 0.00 in0.0 mm 0.16 in4.1 mm
06:30 PM 59.8°F15.4°C 54.3°F12.4°C 82% 5.0 mph WSW8.0 kmh WSW 7.0 mph11.3 kmh 29.96 in1014.6 mb - 0.00 in0.0 mm 0.16 in4.1 mm
06:40 PM 59.3°F15.2°C 53.8°F12.1°C 82% 6.0 mph WSW9.7 kmh WSW 9.0 mph14.5 kmh 29.96 in1014.6 mb - 0.00 in0.0 mm 0.16 in4.1 mm
06:50 PM 58.8°F14.9°C 53.6°F12.0°C 83% 5.0 mph WSW8.0 kmh WSW 5.0 mph8.0 kmh 29.96 in1014.6 mb - 0.00 in0.0 mm 0.16 in4.1 mm
07:00 PM 58.5°F14.7°C 54.0°F12.2°C 85% 6.0 mph WSW9.7 kmh WSW 8.0 mph12.9 kmh 29.96 in1014.6 mb - 0.00 in0.0 mm 0.16 in4.1 mm
07:10 PM 58.1°F14.5°C 53.3°F11.8°C 84% 3.0 mph WSW4.8 kmh WSW 3.0 mph4.8 kmh 29.96 in1014.6 mb - 0.00 in0.0 mm 0.16 in4.1 mm
07:30 PM 54.1°F12.3°C 53.0°F11.7°C 96% Calm Calm -- 29.91 in1012.9 mb - 0.00 in0.0 mm 0.92 in23.4 mm
08:00 PM 53.3°F11.8°C 52.5°F11.4°C 97% 0.1 mph W0.2 kmh W 1.0 mph1.6 kmh 29.92 in1013.2 mb - 0.00 in0.0 mm 0.92 in23.4 mm
08:30 PM 52.5°F11.4°C 51.7°F10.9°C 97% Calm Calm -- 29.93 in1013.5 mb - 0.00 in0.0 mm 0.92 in23.4 mm
09:00 PM 51.9°F11.1°C 51.4°F10.8°C 98% 0.3 mph W0.5 kmh W 3.0 mph4.8 kmh 29.94 in1013.9 mb - 0.00 in0.0 mm 0.92 in23.4 mm
09:30 PM 52.2°F11.2°C 51.7°F10.9°C 98% Calm Calm -- 29.94 in1013.9 mb - 0.00 in0.0 mm 0.92 in23.4 mm
10:00 PM 51.9°F11.1°C 51.4°F10.8°C 98% Calm Calm -- 29.95 in1014.2 mb - 0.00 in0.0 mm 0.92 in23.4 mm
10:30 PM 51.7°F10.9°C 51.2°F10.7°C 98% Calm Calm -- 29.95 in1014.2 mb - 0.00 in0.0 mm 0.92 in23.4 mm
11:00 PM 51.4°F10.8°C 50.9°F10.5°C 98% Calm Calm -- 29.95 in1014.2 mb - 0.00 in0.0 mm 0.19 in4.8 mm
11:30 PM 51.1°F10.6°C 50.6°F10.3°C 98% Calm Calm -- 29.96 in1014.6 mb - 0.00 in0.0 mm 0.19 in4.8 mm